Time;durP1;ratioP1;P1;durP2;ratioP2;P2;SDS_P1;SDS_P2;PMS_P1;PMS_P2;Temp;Humidity;BMP_temperature;BMP_pressure;BME280_temperature;BME280_humidity;BME280_pressure;Samples;Min_cycle;Max_cycle;Signal;HPM_P1;HPM_P2
2021/09/12 00:00:42;;;;;;;16.90;7.53;;;;;;;;;;5071320;28;20017;-66
2021/09/12 00:03:08;;;;;;;15.30;7.90;;;;;;;;;;5071428;28;20263;-68
2021/09/12 00:05:33;;;;;;;18.15;9.82;;;;;;;;;;5071340;28;20346;-68
2021/09/12 00:07:58;;;;;;;12.98;8.52;;;;;;;;;;5071351;28;20031;-66
2021/09/12 00:10:24;;;;;;;12.60;8.35;;;;;;;;;;5064855;28;20024;-67
2021/09/12 00:12:49;;;;;;;11.20;8.00;;;;;;;;;;5070900;28;20126;-68
2021/09/12 00:15:14;;;;;;;15.20;7.40;;;;;;;;;;5068854;28;20031;-68
2021/09/12 00:17:40;;;;;;;10.57;7.10;;;;;;;;;;5070720;28;20282;-68
2021/09/12 00:20:06;;;;;;;10.27;7.60;;;;;;;;;;5070743;28;20107;-66
2021/09/12 00:22:31;;;;;;;9.63;6.70;;;;;;;;;;5070418;28;20101;-67
2021/09/12 00:24:56;;;;;;;9.75;7.43;;;;;;;;;;5070335;28;20055;-68
2021/09/12 00:27:22;;;;;;;11.45;7.03;;;;;;;;;;5071505;28;20028;-67
2021/09/12 00:29:47;;;;;;;13.68;8.35;;;;;;;;;;5071445;28;20037;-68
2021/09/12 00:32:12;;;;;;;13.75;8.05;;;;;;;;;;5071032;28;20388;-68
2021/09/12 00:34:37;;;;;;;11.63;8.20;;;;;;;;;;5070912;28;20058;-67
2021/09/12 00:37:03;;;;;;;15.20;8.63;;;;;;;;;;5070923;28;20308;-68
2021/09/12 00:39:29;;;;;;;13.35;8.75;;;;;;;;;;5070693;28;20016;-68
2021/09/12 00:41:54;;;;;;;15.43;8.65;;;;;;;;;;5070740;28;20013;-67
2021/09/12 00:44:22;;;;;;;15.10;8.13;;;;;;;;;;5069900;28;20413;-68
2021/09/12 00:46:47;;;;;;;10.77;7.50;;;;;;;;;;5067679;28;20284;-67
2021/09/12 00:49:14;;;;;;;15.47;8.67;;;;;;;;;;5070620;28;20469;-67
2021/09/12 00:51:39;;;;;;;16.92;7.63;;;;;;;;;;5069816;28;20935;-68
2021/09/12 00:54:05;;;;;;;13.48;7.00;;;;;;;;;;5070280;28;20047;-67
2021/09/12 00:56:32;;;;;;;14.82;10.27;;;;;;;;;;5070750;28;20038;-68
2021/09/12 00:58:59;;;;;;;14.07;8.80;;;;;;;;;;5069854;28;20056;-68
2021/09/12 01:01:25;;;;;;;15.23;9.50;;;;;;;;;;5065805;28;20027;-66
2021/09/12 01:03:51;;;;;;;17.25;9.25;;;;;;;;;;5065163;28;20086;-66
2021/09/12 01:06:17;;;;;;;15.98;9.02;;;;;;;;;;5069962;28;20052;-64
2021/09/12 01:08:42;;;;;;;12.85;7.97;;;;;;;;;;5070255;28;20024;-65
2021/09/12 01:11:07;;;;;;;13.67;8.70;;;;;;;;;;5070644;28;20021;-67
2021/09/12 01:13:39;;;;;;;14.93;7.93;;;;;;;;;;5065995;28;20769;-67
2021/09/12 01:16:10;;;;;;;13.38;7.45;;;;;;;;;;5067587;28;20031;-68
2021/09/12 01:18:35;;;;;;;12.38;7.97;;;;;;;;;;5069716;28;20515;-66
2021/09/12 01:21:00;;;;;;;12.40;7.27;;;;;;;;;;5069696;28;20028;-65
2021/09/12 01:23:26;;;;;;;10.67;7.77;;;;;;;;;;5067330;28;20276;-66
2021/09/12 01:25:54;;;;;;;13.47;7.90;;;;;;;;;;5056095;28;20326;-65
2021/09/12 01:28:19;;;;;;;11.25;7.53;;;;;;;;;;5058645;28;20266;-67
2021/09/12 01:30:44;;;;;;;16.40;8.20;;;;;;;;;;5069995;28;20024;-68
2021/09/12 01:33:10;;;;;;;15.37;8.67;;;;;;;;;;5069558;28;20662;-68
2021/09/12 01:35:35;;;;;;;12.27;7.83;;;;;;;;;;5071191;28;20377;-68
2021/09/12 01:38:00;;;;;;;10.77;7.93;;;;;;;;;;5073000;28;20259;-67
2021/09/12 01:40:25;;;;;;;15.83;7.83;;;;;;;;;;5076623;28;20751;-66
2021/09/12 01:42:50;;;;;;;14.70;8.17;;;;;;;;;;5076855;28;20290;-67
2021/09/12 01:45:15;;;;;;;17.27;8.77;;;;;;;;;;5076162;28;20267;-67
2021/09/12 01:47:45;;;;;;;14.00;9.10;;;;;;;;;;5076266;28;20951;-65
2021/09/12 01:50:11;;;;;;;12.85;7.60;;;;;;;;;;5076445;28;20032;-68
2021/09/12 01:52:36;;;;;;;12.07;7.33;;;;;;;;;;5074778;28;20257;-66
2021/09/12 01:55:01;;;;;;;20.50;9.17;;;;;;;;;;5069191;28;20346;-66
2021/09/12 01:57:27;;;;;;;15.77;8.23;;;;;;;;;;5075184;28;20315;-67
2021/09/12 01:59:52;;;;;;;18.17;9.43;;;;;;;;;;5075803;28;20266;-66
2021/09/12 02:02:17;;;;;;;15.10;8.83;;;;;;;;;;5075152;28;20036;-66
2021/09/12 02:04:43;;;;;;;13.97;8.43;;;;;;;;;;5075428;28;20357;-65
2021/09/12 02:07:08;;;;;;;15.30;8.77;;;;;;;;;;5073582;28;20647;-66
2021/09/12 02:09:33;;;;;;;18.63;9.47;;;;;;;;;;5074127;28;20274;-66
2021/09/12 02:11:59;;;;;;;17.05;8.88;;;;;;;;;;5075409;28;20320;-67
2021/09/12 02:14:24;;;;;;;16.98;8.48;;;;;;;;;;5074995;28;20086;-67
2021/09/12 02:16:49;;;;;;;10.97;7.63;;;;;;;;;;5075544;28;20520;-66
2021/09/12 02:19:14;;;;;;;14.52;8.52;;;;;;;;;;5075512;28;20262;-67
2021/09/12 02:21:39;;;;;;;15.73;8.63;;;;;;;;;;5074116;28;20020;-65
2021/09/12 02:24:05;;;;;;;17.63;9.67;;;;;;;;;;5075190;28;20674;-66
2021/09/12 02:26:30;;;;;;;15.27;7.38;;;;;;;;;;5075343;28;20341;-66
2021/09/12 02:28:55;;;;;;;15.30;8.23;;;;;;;;;;5076014;28;20060;-65
2021/09/12 02:31:20;;;;;;;12.67;7.57;;;;;;;;;;5076100;28;20258;-66
2021/09/12 02:33:45;;;;;;;18.90;8.13;;;;;;;;;;5075930;28;20836;-67
2021/09/12 02:36:11;;;;;;;14.57;7.43;;;;;;;;;;5076414;28;20032;-66
2021/09/12 02:38:36;;;;;;;10.43;7.23;;;;;;;;;;5075245;28;20438;-67
2021/09/12 02:41:01;;;;;;;14.77;7.57;;;;;;;;;;5074250;28;20259;-65
2021/09/12 02:43:27;;;;;;;11.57;8.07;;;;;;;;;;5075484;28;20269;-67
2021/09/12 02:45:52;;;;;;;13.80;7.05;;;;;;;;;;5072703;28;20258;-66
2021/09/12 02:48:17;;;;;;;13.73;6.63;;;;;;;;;;5070533;28;20023;-66
2021/09/12 02:50:43;;;;;;;11.97;7.73;;;;;;;;;;5071167;28;20020;-66
2021/09/12 02:53:08;;;;;;;15.63;6.93;;;;;;;;;;5071620;28;20747;-66
2021/09/12 02:55:33;;;;;;;11.60;7.27;;;;;;;;;;5071890;28;20443;-66
2021/09/12 02:57:58;;;;;;;11.18;6.35;;;;;;;;;;5072979;28;20300;-66
2021/09/12 03:00:23;;;;;;;10.53;7.03;;;;;;;;;;5071882;28;20621;-66
2021/09/12 03:02:48;;;;;;;11.17;6.77;;;;;;;;;;5071918;28;20274;-68
2021/09/12 03:05:14;;;;;;;10.97;6.80;;;;;;;;;;5069831;28;20263;-66
2021/09/12 03:07:39;;;;;;;12.05;6.53;;;;;;;;;;5071552;28;20369;-66
2021/09/12 03:10:04;;;;;;;;;;;;;;;;;;5071693;28;20064;-65
2021/09/12 03:12:29;;;;;;;17.40;6.63;;;;;;;;;;5067035;28;19966;-66
2021/09/12 03:14:54;;;;;;;12.77;8.20;;;;;;;;;;5071035;28;20407;-65
2021/09/12 03:17:20;;;;;;;15.43;7.15;;;;;;;;;;5072135;28;20385;-65
2021/09/12 03:19:45;;;;;;;11.83;7.30;;;;;;;;;;5071519;28;20012;-65
2021/09/12 03:22:10;;;;;;;12.53;6.77;;;;;;;;;;5072048;28;20808;-66
2021/09/12 03:24:35;;;;;;;10.33;6.47;;;;;;;;;;5071673;28;20315;-66
2021/09/12 03:27:00;;;;;;;16.05;7.40;;;;;;;;;;5072010;28;20270;-65
2021/09/12 03:29:26;;;;;;;16.48;7.53;;;;;;;;;;5071768;28;20021;-66
2021/09/12 03:31:51;;;;;;;12.03;6.53;;;;;;;;;;5071904;28;20370;-66
2021/09/12 03:34:16;;;;;;;8.80;6.30;;;;;;;;;;5070616;28;20294;-66
2021/09/12 03:36:41;;;;;;;17.55;5.75;;;;;;;;;;5071382;28;20317;-65
2021/09/12 03:39:06;;;;;;;12.07;7.13;;;;;;;;;;5071726;28;20028;-65
2021/09/12 03:41:32;;;;;;;12.63;7.03;;;;;;;;;;5070445;28;20875;-67
2021/09/12 03:43:57;;;;;;;9.77;6.40;;;;;;;;;;5070208;28;20024;-65
2021/09/12 03:46:22;;;;;;;8.80;6.40;;;;;;;;;;5071405;28;20340;-66
2021/09/12 03:48:47;;;;;;;12.10;6.67;;;;;;;;;;5071077;28;20278;-65
2021/09/12 03:51:12;;;;;;;13.10;6.73;;;;;;;;;;5071784;28;20285;-65
2021/09/12 03:53:38;;;;;;;10.75;6.60;;;;;;;;;;5069817;28;20318;-65
2021/09/12 03:56:03;;;;;;;14.00;6.93;;;;;;;;;;5070722;28;20099;-66
2021/09/12 03:58:28;;;;;;;7.78;5.63;;;;;;;;;;5070387;28;20269;-65
2021/09/12 04:00:53;;;;;;;12.37;6.27;;;;;;;;;;5069104;28;20016;-66
2021/09/12 04:03:18;;;;;;;10.53;6.30;;;;;;;;;;5069761;28;20263;-65
2021/09/12 04:05:44;;;;;;;11.20;6.33;;;;;;;;;;5070475;28;20299;-65
2021/09/12 04:08:09;;;;;;;9.98;6.13;;;;;;;;;;5070474;28;20723;-65
2021/09/12 04:10:34;;;;;;;10.23;6.05;;;;;;;;;;5070639;28;20035;-66
2021/09/12 04:13:01;;;;;;;11.95;6.35;;;;;;;;;;5069951;28;20027;-66
2021/09/12 04:15:26;;;;;;;9.10;6.05;;;;;;;;;;5070073;28;20373;-66
2021/09/12 04:17:51;;;;;;;13.52;6.75;;;;;;;;;;5070221;28;20029;-67
2021/09/12 04:20:16;;;;;;;10.53;6.63;;;;;;;;;;5069540;28;20020;-65
2021/09/12 04:22:42;;;;;;;13.07;6.18;;;;;;;;;;5069919;28;20342;-66
2021/09/12 04:25:07;;;;;;;12.00;6.07;;;;;;;;;;5070526;28;20013;-66
2021/09/12 04:27:32;;;;;;;15.30;6.63;;;;;;;;;;5070432;28;20346;-65
2021/09/12 04:29:57;;;;;;;9.53;6.00;;;;;;;;;;5070733;28;20473;-67
2021/09/12 04:32:23;;;;;;;8.80;6.38;;;;;;;;;;5070312;28;20277;-66
2021/09/12 04:34:48;;;;;;;14.65;6.40;;;;;;;;;;5069501;28;20028;-66
2021/09/12 04:37:14;;;;;;;16.50;7.03;;;;;;;;;;5070572;28;20096;-65
2021/09/12 04:39:39;;;;;;;12.75;6.55;;;;;;;;;;5070462;28;20021;-66
2021/09/12 04:42:04;;;;;;;10.48;7.72;;;;;;;;;;5051101;28;20492;-65
2021/09/12 04:44:30;;;;;;;8.48;5.78;;;;;;;;;;5067295;28;20370;-65
2021/09/12 04:46:55;;;;;;;10.88;6.45;;;;;;;;;;5070150;28;20095;-65
2021/09/12 04:49:20;;;;;;;13.07;6.00;;;;;;;;;;5070144;28;20024;-65
2021/09/12 04:51:45;;;;;;;11.10;5.87;;;;;;;;;;5070379;28;20650;-66
2021/09/12 04:54:10;;;;;;;14.03;6.70;;;;;;;;;;5068947;28;20285;-66
2021/09/12 04:56:36;;;;;;;17.70;6.30;;;;;;;;;;5070969;28;20243;-65
2021/09/12 04:59:01;;;;;;;13.98;7.07;;;;;;;;;;5070124;28;20571;-67
2021/09/12 05:01:26;;;;;;;12.57;6.63;;;;;;;;;;5069396;28;20473;-68
2021/09/12 05:03:52;;;;;;;17.30;7.23;;;;;;;;;;5069157;28;20373;-67
2021/09/12 05:06:17;;;;;;;13.27;6.50;;;;;;;;;;5069878;28;20332;-67
2021/09/12 05:08:42;;;;;;;11.07;6.47;;;;;;;;;;5069540;28;20401;-67
2021/09/12 05:11:07;;;;;;;15.57;6.65;;;;;;;;;;5068234;28;20021;-67
2021/09/12 05:13:34;;;;;;;8.82;6.32;;;;;;;;;;5068388;28;20064;-67
2021/09/12 05:16:00;;;;;;;15.48;7.53;;;;;;;;;;5069368;28;20020;-67
2021/09/12 05:18:25;;;;;;;15.77;6.47;;;;;;;;;;5070350;28;20046;-66
2021/09/12 05:20:50;;;;;;;10.07;6.40;;;;;;;;;;5069658;28;20934;-67
2021/09/12 05:23:15;;;;;;;9.80;6.30;;;;;;;;;;5069499;28;20302;-66
2021/09/12 05:25:40;;;;;;;9.17;6.10;;;;;;;;;;5068802;28;20266;-67
2021/09/12 05:28:06;;;;;;;17.10;7.17;;;;;;;;;;5067883;28;20266;-64
2021/09/12 05:30:31;;;;;;;15.98;7.47;;;;;;;;;;5068554;28;20286;-66
2021/09/12 05:32:57;;;;;;;14.05;7.13;;;;;;;;;;5068616;28;20033;-67
2021/09/12 05:35:22;;;;;;;10.57;7.00;;;;;;;;;;5069378;28;20027;-66
2021/09/12 05:37:47;;;;;;;12.63;6.35;;;;;;;;;;5069174;28;20020;-67
2021/09/12 05:40:12;;;;;;;8.77;6.43;;;;;;;;;;5069111;28;20025;-67
2021/09/12 05:42:38;;;;;;;16.33;6.72;;;;;;;;;;5069675;28;20267;-67
2021/09/12 05:45:04;;;;;;;15.93;7.35;;;;;;;;;;5069213;28;20020;-67
2021/09/12 05:47:30;;;;;;;13.70;7.18;;;;;;;;;;5069022;28;20115;-67
2021/09/12 05:49:55;;;;;;;9.70;6.40;;;;;;;;;;5069032;28;20048;-67
2021/09/12 05:52:20;;;;;;;12.67;7.13;;;;;;;;;;5068589;28;20032;-67
2021/09/12 05:54:45;;;;;;;12.13;6.63;;;;;;;;;;5069732;28;20282;-67
2021/09/12 05:57:10;;;;;;;14.23;6.93;;;;;;;;;;5069940;28;20273;-68
2021/09/12 05:59:35;;;;;;;11.93;7.60;;;;;;;;;;5068970;28;20271;-67
2021/09/12 06:02:01;;;;;;;19.30;7.93;;;;;;;;;;5067761;28;20274;-67
2021/09/12 06:04:26;;;;;;;14.43;6.90;;;;;;;;;;5068652;28;20032;-67
2021/09/12 06:06:51;;;;;;;12.45;6.63;;;;;;;;;;5069300;28;20028;-67
2021/09/12 06:09:16;;;;;;;11.77;7.57;;;;;;;;;;5068381;28;20020;-67
2021/09/12 06:11:41;;;;;;;18.90;7.87;;;;;;;;;;5063970;28;20086;-66
2021/09/12 06:14:07;;;;;;;12.70;6.33;;;;;;;;;;5068035;28;20291;-65
2021/09/12 06:16:32;;;;;;;13.88;6.80;;;;;;;;;;5067361;28;20286;-66
2021/09/12 06:18:57;;;;;;;9.47;6.60;;;;;;;;;;5067738;28;20089;-65
2021/09/12 06:21:22;;;;;;;11.03;6.90;;;;;;;;;;5069236;28;20258;-66
2021/09/12 06:23:48;;;;;;;12.73;7.00;;;;;;;;;;5071253;28;20263;-66
2021/09/12 06:26:13;;;;;;;16.23;7.47;;;;;;;;;;5071868;28;20066;-65
2021/09/12 06:28:38;;;;;;;19.08;7.47;;;;;;;;;;5072924;28;20025;-65
2021/09/12 06:31:03;;;;;;;18.97;7.37;;;;;;;;;;5072152;28;20028;-65
2021/09/12 06:33:28;;;;;;;16.80;6.78;;;;;;;;;;5072001;28;20597;-65
2021/09/12 06:35:54;;;;;;;17.83;8.63;;;;;;;;;;5072012;28;20027;-66
2021/09/12 06:38:19;;;;;;;24.73;9.23;;;;;;;;;;5072153;28;20228;-66
2021/09/12 06:40:44;;;;;;;15.68;8.35;;;;;;;;;;5071862;28;20017;-66
2021/09/12 06:43:09;;;;;;;16.63;8.43;;;;;;;;;;5071328;28;20025;-66
2021/09/12 06:45:35;;;;;;;21.03;8.27;;;;;;;;;;5072744;28;20302;-66
2021/09/12 06:48:00;;;;;;;20.67;7.72;;;;;;;;;;5072796;28;20608;-65
2021/09/12 06:50:26;;;;;;;15.55;8.13;;;;;;;;;;5071826;28;20036;-65
2021/09/12 06:52:52;;;;;;;20.35;9.13;;;;;;;;;;5071803;28;20121;-65
2021/09/12 06:55:18;;;;;;;18.52;8.35;;;;;;;;;;5071356;28;20039;-66
2021/09/12 06:57:44;;;;;;;19.30;7.10;;;;;;;;;;5072399;28;20079;-65
2021/09/12 07:00:10;;;;;;;16.03;5.60;;;;;;;;;;5072527;28;20020;-66
2021/09/12 07:02:35;;;;;;;15.38;7.25;;;;;;;;;;5071219;28;20259;-68
2021/09/12 07:05:01;;;;;;;23.98;6.07;;;;;;;;;;5072284;28;20401;-67
2021/09/12 07:07:26;;;;;;;17.37;5.73;;;;;;;;;;5072101;28;20302;-65
2021/09/12 07:09:51;;;;;;;16.90;5.97;;;;;;;;;;5072027;28;20646;-67
2021/09/12 07:12:16;;;;;;;15.23;6.47;;;;;;;;;;5071877;28;20493;-65
2021/09/12 07:14:42;;;;;;;20.00;7.15;;;;;;;;;;5061128;28;20028;-66
2021/09/12 07:17:07;;;;;;;22.13;6.55;;;;;;;;;;5058224;28;20461;-65
2021/09/12 07:19:32;;;;;;;15.15;6.72;;;;;;;;;;5069698;28;20020;-65
2021/09/12 07:21:57;;;;;;;14.13;6.50;;;;;;;;;;5068904;28;20020;-65
2021/09/12 07:24:23;;;;;;;14.80;6.45;;;;;;;;;;5069876;28;20621;-65
2021/09/12 07:26:48;;;;;;;13.10;7.38;;;;;;;;;;5068948;28;20028;-66
2021/09/12 07:29:13;;;;;;;21.83;6.80;;;;;;;;;;5069057;28;20044;-66
2021/09/12 07:31:38;;;;;;;18.97;7.27;;;;;;;;;;5069333;28;20670;-66
2021/09/12 07:34:04;;;;;;;28.73;7.70;;;;;;;;;;5059873;28;20385;-66
2021/09/12 07:36:29;;;;;;;24.30;8.45;;;;;;;;;;5063371;28;20255;-66
2021/09/12 07:38:55;;;;;;;19.27;6.95;;;;;;;;;;5069755;28;20055;-66
2021/09/12 07:41:20;;;;;;;14.80;6.07;;;;;;;;;;5068518;28;20025;-66
2021/09/12 07:43:45;;;;;;;18.37;6.93;;;;;;;;;;5068706;28;20209;-67
2021/09/12 07:46:10;;;;;;;15.68;6.93;;;;;;;;;;5069536;28;20650;-66
2021/09/12 07:48:36;;;;;;;19.83;7.45;;;;;;;;;;5069382;28;20079;-67
2021/09/12 07:51:02;;;;;;;24.23;7.90;;;;;;;;;;5068428;28;20032;-66
2021/09/12 07:53:27;;;;;;;19.83;7.93;;;;;;;;;;5060298;28;20329;-65
2021/09/12 07:55:52;;;;;;;18.45;7.43;;;;;;;;;;5057600;28;20025;-66
2021/09/12 07:58:17;;;;;;;19.10;7.40;;;;;;;;;;5065142;28;20549;-65
2021/09/12 08:00:43;;;;;;;18.00;6.60;;;;;;;;;;5063006;28;20358;-67
2021/09/12 08:03:08;;;;;;;19.07;6.63;;;;;;;;;;5068904;28;20521;-66
2021/09/12 08:05:34;;;;;;;12.93;6.83;;;;;;;;;;5068904;28;20361;-66
2021/09/12 08:07:59;;;;;;;13.73;7.13;;;;;;;;;;5067522;28;20271;-66
2021/09/12 08:10:24;;;;;;;15.43;6.73;;;;;;;;;;5068552;28;20109;-66
2021/09/12 08:12:49;;;;;;;17.35;6.30;;;;;;;;;;5060434;28;20275;-66
2021/09/12 08:15:14;;;;;;;16.77;7.18;;;;;;;;;;5066134;28;20505;-65
2021/09/12 08:17:39;;;;;;;13.97;5.53;;;;;;;;;;5068434;28;20507;-66
2021/09/12 08:20:05;;;;;;;17.67;5.97;;;;;;;;;;5068684;28;20275;-67
2021/09/12 08:22:30;;;;;;;13.48;6.00;;;;;;;;;;5065550;28;20270;-67
2021/09/12 08:24:55;;;;;;;19.70;5.00;;;;;;;;;;5061916;28;20167;-67
2021/09/12 08:27:21;;;;;;;13.50;3.80;;;;;;;;;;5061218;28;20278;-66
2021/09/12 08:29:46;;;;;;;18.23;4.38;;;;;;;;;;5058061;28;20302;-66
2021/09/12 08:32:11;;;;;;;14.87;4.07;;;;;;;;;;5062495;28;20029;-67
2021/09/12 08:34:37;;;;;;;8.50;4.07;;;;;;;;;;5066161;28;20305;-66
2021/09/12 08:37:02;;;;;;;10.70;3.33;;;;;;;;;;5068416;28;20317;-67
2021/09/12 08:39:27;;;;;;;10.57;3.15;;;;;;;;;;5068493;28;20025;-67
2021/09/12 08:41:53;;;;;;;10.05;4.25;;;;;;;;;;5057429;28;20023;-67
2021/09/12 08:44:19;;;;;;;8.83;3.77;;;;;;;;;;5060443;28;20032;-67
2021/09/12 08:46:45;;;;;;;8.98;3.63;;;;;;;;;;5064743;28;20842;-67
2021/09/12 08:49:10;;;;;;;9.93;2.67;;;;;;;;;;5059773;28;20107;-67
2021/09/12 08:51:35;;;;;;;10.27;3.17;;;;;;;;;;5069685;28;20119;-67
2021/09/12 08:54:00;;;;;;;7.13;3.03;;;;;;;;;;5069608;28;20285;-67
2021/09/12 08:56:25;;;;;;;5.30;3.20;;;;;;;;;;5070145;28;20824;-67
2021/09/12 08:58:50;;;;;;;16.17;3.70;;;;;;;;;;5064646;28;20282;-67
2021/09/12 09:01:16;;;;;;;15.50;3.77;;;;;;;;;;5060708;28;20279;-67
2021/09/12 09:03:42;;;;;;;11.55;3.55;;;;;;;;;;5065106;28;20341;-66
2021/09/12 09:06:17;;;;;;;10.20;3.75;;;;;;;;;;5068925;28;20492;-67
2021/09/12 09:08:52;;;;;;;10.75;2.63;;;;;;;;;;5068671;28;20066;-67
2021/09/12 09:11:34;;;;;;;7.07;2.42;;;;;;;;;;5067780;28;20027;-66
2021/09/12 09:14:13;;;;;;;12.48;2.83;;;;;;;;;;5063505;28;20030;-66
2021/09/12 09:16:38;;;;;;;8.45;3.05;;;;;;;;;;5055815;28;20048;-66
2021/09/12 09:19:04;;;;;;;13.32;2.60;;;;;;;;;;5063294;28;20040;-67
2021/09/12 09:21:31;;;;;;;8.85;2.95;;;;;;;;;;5060497;28;20048;-66
2021/09/12 09:24:11;;;;;;;9.02;3.45;;;;;;;;;;5067406;28;20078;-66
2021/09/12 09:26:38;;;;;;;9.90;3.17;;;;;;;;;;5067494;28;20669;-67
2021/09/12 09:29:03;;;;;;;9.40;3.65;;;;;;;;;;5066595;28;20032;-67
2021/09/12 09:31:28;;;;;;;6.30;3.27;;;;;;;;;;5058823;28;20046;-67
2021/09/12 09:33:53;;;;;;;14.27;2.60;;;;;;;;;;5059490;28;20020;-67
2021/09/12 09:36:19;;;;;;;7.40;3.50;;;;;;;;;;5069690;28;20060;-66
2021/09/12 09:38:46;;;;;;;8.52;2.90;;;;;;;;;;5069785;28;20251;-67
2021/09/12 09:41:12;;;;;;;4.38;2.70;;;;;;;;;;5068683;28;20029;-67
2021/09/12 09:43:38;;;;;;;8.77;3.17;;;;;;;;;;5068746;28;20026;-67
2021/09/12 09:46:03;;;;;;;10.25;3.80;;;;;;;;;;5070006;28;20412;-67
2021/09/12 09:48:35;;;;;;;8.90;3.70;;;;;;;;;;5068945;28;20023;-68
2021/09/12 09:51:01;;;;;;;7.57;3.03;;;;;;;;;;5069018;28;20028;-67
2021/09/12 09:53:27;;;;;;;7.97;2.85;;;;;;;;;;5068225;28;20012;-67
2021/09/12 09:55:53;;;;;;;6.25;2.55;;;;;;;;;;5068761;28;20373;-67
2021/09/12 09:58:18;;;;;;;7.82;3.15;;;;;;;;;;5073300;28;20108;-67
2021/09/12 10:00:43;;;;;;;4.45;2.20;;;;;;;;;;5072714;28;20128;-67
2021/09/12 10:03:08;;;;;;;10.13;2.20;;;;;;;;;;5073631;28;20017;-66
2021/09/12 10:05:34;;;;;;;5.22;2.30;;;;;;;;;;5073147;28;20278;-67
2021/09/12 10:07:59;;;;;;;10.30;2.60;;;;;;;;;;5062131;28;20083;-67
2021/09/12 10:10:24;;;;;;;8.25;2.50;;;;;;;;;;5063472;28;20304;-67
2021/09/12 10:12:52;;;;;;;6.57;3.00;;;;;;;;;;5066194;28;20085;-66
2021/09/12 10:15:20;;;;;;;13.35;3.13;;;;;;;;;;5070978;28;20036;-66
2021/09/12 10:17:45;;;;;;;11.90;3.00;;;;;;;;;;5070645;28;20474;-67
2021/09/12 10:20:11;;;;;;;10.80;3.13;;;;;;;;;;5071327;28;20036;-67
2021/09/12 10:22:49;;;;;;;7.75;1.90;;;;;;;;;;5069738;28;20503;-67
2021/09/12 10:25:15;;;;;;;8.10;2.47;;;;;;;;;;5051704;28;20029;-67
2021/09/12 10:27:43;;;;;;;15.15;3.25;;;;;;;;;;5061950;28;20503;-67
2021/09/12 10:30:25;;;;;;;8.32;2.58;;;;;;;;;;5061985;28;20017;-67
2021/09/12 10:33:16;;;;;;;5.88;2.22;;;;;;;;;;5071477;28;20107;-67
2021/09/12 10:35:48;;;;;;;3.78;2.08;;;;;;;;;;5064695;28;20540;-67
2021/09/12 10:38:29;;;;;;;13.57;2.10;;;;;;;;;;5071356;28;20028;-67
2021/09/12 10:40:54;;;;;;;4.70;2.10;;;;;;;;;;5067637;28;20075;-68
2021/09/12 10:43:26;;;;;;;9.75;2.25;;;;;;;;;;5072544;28;20351;-67
2021/09/12 10:46:06;;;;;;;10.07;2.60;;;;;;;;;;5072967;28;20208;-68
2021/09/12 10:48:34;;;;;;;3.42;2.10;;;;;;;;;;5072614;28;20059;-67
2021/09/12 10:51:01;;;;;;;24.38;14.68;;;;;;;;;;5070753;28;20024;-68
2021/09/12 10:56:10;;;;;;;23.75;15.43;;;;;;;;;;5060085;28;20425;-91
2021/09/12 10:58:35;;;;;;;6.57;2.15;;;;;;;;;;5056713;28;20056;-92
2021/09/12 11:01:04;;;;;;;19.23;13.30;;;;;;;;;;5051782;28;20021;-90
2021/09/12 11:03:44;;;;;;;10.50;3.95;;;;;;;;;;5041615;28;20024;-91
2021/09/12 11:06:21;;;;;;;7.72;2.95;;;;;;;;;;5033866;28;20120;-92
2021/09/12 11:08:52;;;;;;;7.05;2.70;;;;;;;;;;5036249;28;20045;-94
2021/09/12 11:11:23;;;;;;;4.57;1.58;;;;;;;;;;5052463;28;20025;-93
2021/09/12 11:13:55;;;;;;;4.95;2.00;;;;;;;;;;5050922;28;20025;-92
2021/09/12 11:16:22;;;;;;;7.13;1.77;;;;;;;;;;5052769;28;20087;-93
2021/09/12 11:19:14;;;;;;;5.05;2.00;;;;;;;;;;5050867;28;20009;-92
2021/09/12 11:21:52;;;;;;;7.10;2.67;;;;;;;;;;5025606;28;20029;-96
2021/09/12 11:24:23;;;;;;;5.93;2.30;;;;;;;;;;5051399;28;20021;-92
2021/09/12 11:26:54;;;;;;;9.05;2.88;;;;;;;;;;5048010;28;20026;-91
2021/09/12 11:29:25;;;;;;;5.53;1.92;;;;;;;;;;5041276;28;20552;-91
2021/09/12 11:32:02;;;;;;;6.78;1.90;;;;;;;;;;5051894;28;20166;-92
2021/09/12 11:34:27;;;;;;;5.55;2.05;;;;;;;;;;5051565;28;20252;-91
2021/09/12 11:37:13;;;;;;;;;;;;;;;;;;;;;
2021/09/12 11:39:52;;;;;;;5.35;2.00;;;;;;;;;;5044987;28;20547;-92
2021/09/12 11:42:32;;;;;;;;;;;;;;;;;;;;;
2021/09/12 11:45:01;;;;;;;7.60;2.63;;;;;;;;;;5052944;28;20028;-92
2021/09/12 11:47:31;;;;;;;4.15;1.30;;;;;;;;;;5051216;28;20056;-91
2021/09/12 11:49:58;;;;;;;5.68;1.58;;;;;;;;;;5054050;28;20045;-89
2021/09/12 11:52:33;;;;;;;5.53;1.52;;;;;;;;;;5047563;28;20021;-90
2021/09/12 11:54:59;;;;;;;10.30;2.78;;;;;;;;;;5041233;28;20052;-91
2021/09/12 11:57:24;;;;;;;7.03;2.10;;;;;;;;;;5045632;28;20025;-91
2021/09/12 11:59:58;;;;;;;7.22;2.10;;;;;;;;;;5041917;28;20049;-92
2021/09/12 12:02:24;;;;;;;5.47;1.80;;;;;;;;;;5041923;28;20017;-89
2021/09/12 12:04:58;;;;;;;5.78;2.03;;;;;;;;;;5036233;28;20104;-90
2021/09/12 12:07:33;;;;;;;3.45;1.50;;;;;;;;;;5035885;28;20041;-89
2021/09/12 12:09:58;;;;;;;9.70;1.85;;;;;;;;;;5037677;28;20107;-90
2021/09/12 12:12:23;;;;;;;7.18;1.92;;;;;;;;;;5040695;28;20488;-89
2021/09/12 12:14:55;;;;;;;3.45;1.58;;;;;;;;;;5052432;28;20079;-89
2021/09/12 12:17:22;;;;;;;6.28;1.48;;;;;;;;;;5051695;28;20024;-90
2021/09/12 12:19:47;;;;;;;5.38;1.70;;;;;;;;;;5049853;28;20035;-89
2021/09/12 12:22:13;;;;;;;7.95;1.70;;;;;;;;;;5030577;28;20021;-90
2021/09/12 12:24:40;;;;;;;4.93;1.50;;;;;;;;;;5048560;28;20113;-88
2021/09/12 12:27:06;;;;;;;3.05;1.48;;;;;;;;;;5050916;28;20155;-90
2021/09/12 12:29:32;;;;;;;4.85;1.33;;;;;;;;;;5050389;28;20101;-90
2021/09/12 12:31:58;;;;;;;3.47;1.75;;;;;;;;;;5050720;28;20049;-90
2021/09/12 12:34:36;;;;;;;6.35;1.70;;;;;;;;;;5054398;28;20013;-89
2021/09/12 12:37:02;;;;;;;4.10;1.55;;;;;;;;;;5053721;28;20027;-89
2021/09/12 12:39:27;;;;;;;8.02;2.00;;;;;;;;;;5033342;28;20017;-88
2021/09/12 12:41:53;;;;;;;4.57;1.60;;;;;;;;;;5035969;28;20021;-88
2021/09/12 12:44:18;;;;;;;5.45;1.67;;;;;;;;;;5040925;28;20264;-89
2021/09/12 12:46:44;;;;;;;6.05;1.85;;;;;;;;;;5032909;28;20033;-89
2021/09/12 12:49:09;;;;;;;4.57;1.75;;;;;;;;;;5031057;28;20022;-89
2021/09/12 12:51:35;;;;;;;4.70;1.60;;;;;;;;;;5042006;28;20025;-89
2021/09/12 12:54:01;;;;;;;7.10;1.50;;;;;;;;;;5051080;28;20028;-89
2021/09/12 12:56:29;;;;;;;6.15;1.70;;;;;;;;;;5049720;28;20540;-90
2021/09/12 12:58:54;;;;;;;1.67;1.20;;;;;;;;;;5048763;28;20100;-89
2021/09/12 13:01:20;;;;;;;5.65;2.03;;;;;;;;;;5049361;28;20064;-90
2021/09/12 13:03:45;;;;;;;3.47;1.48;;;;;;;;;;5047746;28;20449;-89
2021/09/12 13:06:11;;;;;;;5.07;1.20;;;;;;;;;;5050616;28;20021;-90
2021/09/12 13:08:37;;;;;;;7.10;1.48;;;;;;;;;;5049265;28;20468;-88
2021/09/12 13:11:03;;;;;;;7.75;1.60;;;;;;;;;;5046533;28;20024;-90
2021/09/12 13:13:28;;;;;;;4.55;1.92;;;;;;;;;;5040061;28;20526;-89
2021/09/12 13:15:54;;;;;;;4.63;1.25;;;;;;;;;;5053266;28;20385;-89
2021/09/12 13:18:19;;;;;;;4.55;1.38;;;;;;;;;;5051866;28;20103;-89
2021/09/12 13:20:48;;;;;;;5.68;1.63;;;;;;;;;;5050749;28;20071;-88
2021/09/12 13:23:13;;;;;;;6.28;1.95;;;;;;;;;;5050506;28;20017;-89
2021/09/12 13:25:39;;;;;;;14.32;2.50;;;;;;;;;;5048500;28;20392;-89
2021/09/12 13:28:04;;;;;;;4.43;2.00;;;;;;;;;;5048792;28;20040;-88
2021/09/12 13:30:30;;;;;;;6.85;1.88;;;;;;;;;;5048898;28;20449;-88
2021/09/12 13:32:55;;;;;;;7.10;1.92;;;;;;;;;;5046965;28;20032;-88
2021/09/12 13:35:21;;;;;;;4.57;1.88;;;;;;;;;;5040434;28;20009;-87
2021/09/12 13:37:46;;;;;;;6.97;2.40;;;;;;;;;;5037726;28;20025;-89
2021/09/12 13:40:12;;;;;;;8.05;2.20;;;;;;;;;;5045956;28;20443;-88
2021/09/12 13:42:38;;;;;;;6.20;2.00;;;;;;;;;;5045652;28;20048;-87
2021/09/12 13:45:04;;;;;;;5.97;2.00;;;;;;;;;;5050331;28;20023;-87
2021/09/12 13:47:30;;;;;;;6.97;1.98;;;;;;;;;;5049042;28;20033;-88
2021/09/12 13:49:55;;;;;;;5.90;1.87;;;;;;;;;;5046931;28;20017;-87
2021/09/12 13:52:20;;;;;;;18.75;2.97;;;;;;;;;;5048539;28;20938;-87
2021/09/12 13:54:46;;;;;;;9.05;2.15;;;;;;;;;;5048342;28;20544;-88
2021/09/12 13:57:11;;;;;;;7.10;2.10;;;;;;;;;;5044093;28;20155;-88
2021/09/12 13:59:36;;;;;;;6.13;1.88;;;;;;;;;;5033501;28;20024;-89
2021/09/12 14:02:01;;;;;;;6.32;1.70;;;;;;;;;;5042668;28;20021;-87
2021/09/12 14:04:27;;;;;;;3.40;2.00;;;;;;;;;;5049038;28;20078;-88
2021/09/12 14:06:52;;;;;;;3.67;1.40;;;;;;;;;;5047859;28;20035;-88
2021/09/12 14:09:17;;;;;;;3.90;2.00;;;;;;;;;;5044134;28;20906;-89
2021/09/12 14:11:43;;;;;;;4.78;1.55;;;;;;;;;;5048527;28;20267;-89
2021/09/12 14:14:08;;;;;;;5.28;1.90;;;;;;;;;;5047816;28;20017;-88
2021/09/12 14:16:34;;;;;;;4.67;2.07;;;;;;;;;;5039644;28;20448;-88
2021/09/12 14:18:59;;;;;;;4.73;1.70;;;;;;;;;;5045615;28;20766;-89
2021/09/12 14:21:24;;;;;;;3.95;1.60;;;;;;;;;;5047354;28;20287;-88
2021/09/12 14:23:50;;;;;;;6.10;1.95;;;;;;;;;;5048361;28;20427;-89
2021/09/12 14:26:15;;;;;;;7.05;2.08;;;;;;;;;;5056110;23;20025;-68
2021/09/12 14:28:41;;;;;;;5.25;1.83;;;;;;;;;;5043039;28;20504;-67
2021/09/12 14:31:09;;;;;;;3.90;1.43;;;;;;;;;;5048145;28;20658;-68
2021/09/12 14:33:35;;;;;;;10.30;1.85;;;;;;;;;;5049360;28;20274;-68